Cognac-Châteaubernard

LFBG · Charente, Nouvelle-Aquitaine, 法国

罗盘
风向 的 Cognac-Châteaubernard 5/23
风: 0 kt, 0 beaufort


改变
0 ft 1.000 2.000 3.000 4.000 5.000
CAVOK
METAR LFBG 132300Z AUTO 00000KT CAVOK 15/13 Q1025

METAR Cognac-Châteaubernard - LFBG/CNG

Cognac-Châteaubernard是,法国中的中型机场。 该机场位于纬度45,65641和经度-0,31358。 该机场有3条跑道: 5/23, 5R/23L 和 8/26. 本场的ICAO机场代码为LFBG。 该机场的IATA代码为CNG。 机场在Bordeaux FIR中。

该航空气象观测是针对Cognac-Châteaubernard在2024年4月14日 01:00, 当地时间进行的。

机场观察

可变方向的风很小或没有风。

天气为CAVOK。这意味着在5.000 ft或MSA(最低安全高度)以下(以较高者为准)以下没有云。这也意味着没有观测到积雨云或高耸的积云,可见度为10 km 或者更多或更高。此外,不会有雾,降雨或其他重要天气。

温度和风寒是15 °C。 露点为13 °C,相对湿度为88%。 海平面上的气压为1025 hPa (QNH)。

白天

今天,太阳从07:17升起,在20:45降落。 这适用于Cognac-Châteaubernard,世界夏令时可能有所不同。 当地时间与世界标准时间之间的时差为+2 小时。 夏令时目前正在进行中。

公司介绍

在这个机场,你可以找到飞行俱乐部。 本场上唯一已知的公司是Les Ailes Cognaçaises。

体会

到Vliegles.nl去找飞行课程,跳伞和其他飞行体验。 浏览页面,了解Cognac-Châteaubernard附近所有可用的活动。 你也可以使用搜索功能来寻找你所在地附近的特定飞行课程、跳伞或其他飞行体验。

跑道

Id 标题 侧风 逆风 侧风 %
5/23 050°-230°
5R/23L 048°-228°
8/26 084°-264°

逆风成分最大的方向会被突出显示,并用于横风计算。 这并不一定意味着这个方向在使用。

温度 & 天气

温度 15 °C
露点 13 °C
相对湿度 88%
Kp-index 1 (0-9)

白天

日出
07:17 (5:50)
中午
14:01
日落
20:45

小工具

你想在你的网站上有一个关于Cognac-Châteaubernard的当前航空天气(METAR)的小部件吗?

显示HTML代码
报告变更